Time;durP1;ratioP1;P1;durP2;ratioP2;P2;SDS_P1;SDS_P2;PMS_P1;PMS_P2;Temp;Humidity;BMP_temperature;BMP_pressure;BME280_temperature;BME280_humidity;BME280_pressure;Samples;Min_cycle;Max_cycle;Signal;HPM_P1;HPM_P2
2022/11/26 00:01:14;;;;;;;21.77;7.30;;;6.30;99.90;;;;;;5071083;28;20458;-68
2022/11/26 00:03:41;;;;;;;17.20;6.10;;;6.30;99.90;;;;;;5070414;28;20551;-68
2022/11/26 00:06:22;;;;;;;23.50;6.57;;;6.40;99.90;;;;;;5071189;28;20463;-68
2022/11/26 00:08:49;;;;;;;19.90;6.40;;;6.40;99.90;;;;;;5071136;28;20483;-68
2022/11/26 00:11:16;;;;;;;24.73;6.60;;;6.50;99.90;;;;;;5070847;28;20478;-68
2022/11/26 00:13:44;;;;;;;17.97;6.60;;;6.50;99.90;;;;;;5071180;28;20475;-68
2022/11/26 00:16:13;;;;;;;25.27;7.20;;;6.50;99.90;;;;;;5070524;28;20502;-68
2022/11/26 00:18:40;;;;;;;17.93;6.50;;;6.50;99.90;;;;;;5070965;28;20869;-68
2022/11/26 00:21:15;;;;;;;22.13;6.90;;;6.50;99.90;;;;;;5071255;28;20455;-67
2022/11/26 00:23:43;;;;;;;13.00;7.13;;;6.50;99.90;;;;;;5053697;28;20477;-68
2022/11/26 00:26:15;;;;;;;17.47;6.60;;;6.50;99.90;;;;;;5071218;28;20499;-68
2022/11/26 00:28:50;;;;;;;12.10;5.90;;;6.50;99.90;;;;;;5074648;28;20514;-68
2022/11/26 00:31:17;;;;;;;19.17;6.60;;;6.50;99.90;;;;;;5074879;28;20454;-68
2022/11/26 00:33:44;;;;;;;19.20;6.80;;;6.40;99.90;;;;;;5074287;28;20467;-68
2022/11/26 00:36:17;;;;;;;16.93;7.00;;;6.40;99.90;;;;;;5074990;28;20451;-67
2022/11/26 00:38:44;;;;;;;16.00;6.30;;;6.40;99.90;;;;;;5074544;28;20454;-68
2022/11/26 00:41:16;;;;;;;20.00;7.93;;;6.30;99.90;;;;;;5074981;28;20455;-68
2022/11/26 00:43:44;;;;;;;16.97;6.83;;;6.30;99.90;;;;;;5074070;28;20534;-68
2022/11/26 00:46:13;;;;;;;22.20;7.20;;;6.30;99.90;;;;;;5074735;28;20452;-68
2022/11/26 00:48:40;;;;;;;16.13;6.57;;;6.20;99.90;;;;;;5074344;28;20484;-67
2022/11/26 00:51:09;;;;;;;17.97;6.13;;;6.20;99.90;;;;;;5074361;28;20445;-68
2022/11/26 00:53:36;;;;;;;22.13;7.17;;;6.10;99.90;;;;;;5074051;28;20468;-67
2022/11/26 00:56:02;;;;;;;20.60;7.43;;;6.10;99.90;;;;;;5074453;28;20525;-67
2022/11/26 00:58:30;;;;;;;18.60;6.90;;;6.10;99.90;;;;;;5074097;28;20449;-68
2022/11/26 01:00:58;;;;;;;17.47;7.13;;;6.10;99.90;;;;;;5074485;28;20446;-68
2022/11/26 01:03:28;;;;;;;24.20;7.83;;;6.00;99.90;;;;;;5073806;28;20468;-68
2022/11/26 01:05:58;;;;;;;13.00;6.70;;;6.00;99.90;;;;;;5074119;28;20459;-68
2022/11/26 01:08:30;;;;;;;13.47;6.10;;;6.00;99.90;;;;;;5074195;28;20494;-68
2022/11/26 01:10:58;;;;;;;18.27;7.80;;;6.00;99.90;;;;;;5074232;28;20467;-67
2022/11/26 01:13:25;;;;;;;19.87;7.53;;;5.80;99.90;;;;;;5073733;28;20995;-67
2022/11/26 01:15:52;;;;;;;26.07;7.53;;;5.80;99.90;;;;;;5074115;28;20501;-67
2022/11/26 01:18:20;;;;;;;17.57;8.17;;;5.70;99.90;;;;;;5074021;28;20445;-67
2022/11/26 01:20:48;;;;;;;17.37;8.00;;;5.60;99.90;;;;;;5074106;28;20448;-68
2022/11/26 01:23:17;;;;;;;24.73;8.20;;;5.40;99.90;;;;;;5073795;28;20466;-67
2022/11/26 01:25:45;;;;;;;16.07;8.07;;;5.40;99.90;;;;;;5073645;28;20449;-67
2022/11/26 01:28:14;;;;;;;18.53;8.37;;;5.30;99.90;;;;;;5073765;28;20487;-67
2022/11/26 01:30:42;;;;;;;20.17;7.67;;;5.30;99.90;;;;;;5073490;28;20943;-67
2022/11/26 01:33:08;;;;;;;17.33;8.77;;;5.20;99.90;;;;;;5073277;28;20821;-67
2022/11/26 01:35:36;;;;;;;18.63;8.80;;;5.20;99.90;;;;;;5073680;28;20462;-67
2022/11/26 01:38:04;;;;;;;27.60;8.87;;;5.10;99.90;;;;;;5073268;28;20444;-67
2022/11/26 01:40:40;;;;;;;28.20;9.57;;;5.10;99.90;;;;;;5073447;28;20505;-68
2022/11/26 01:43:13;;;;;;;28.10;9.00;;;5.10;99.90;;;;;;5073552;28;20460;-67
2022/11/26 01:45:40;;;;;;;33.13;9.40;;;5.10;99.90;;;;;;5073437;28;20451;-67
2022/11/26 01:48:25;;;;;;;20.30;8.63;;;5.00;99.90;;;;;;5073739;28;20471;-68
2022/11/26 01:50:57;;;;;;;26.00;8.93;;;5.00;99.90;;;;;;5073342;28;20448;-67
2022/11/26 01:53:54;;;;;;;30.57;9.57;;;4.90;99.90;;;;;;5072914;28;20476;-68
2022/11/26 01:56:33;;;;;;;16.50;9.17;;;4.90;99.90;;;;;;5066433;28;20483;-67
2022/11/26 01:59:06;;;;;;;25.77;10.20;;;4.90;99.90;;;;;;5073436;28;20502;-67
2022/11/26 02:01:33;;;;;;;34.70;8.63;;;4.80;99.90;;;;;;5073013;28;20823;-67
2022/11/26 02:04:11;;;;;;;24.60;8.50;;;4.80;99.90;;;;;;5072258;28;20957;-68
2022/11/26 02:06:40;;;;;;;35.23;9.70;;;4.70;99.90;;;;;;5073175;28;20460;-68
2022/11/26 02:09:10;;;;;;;21.70;9.57;;;4.70;99.90;;;;;;5073020;28;20494;-67
2022/11/26 02:11:37;;;;;;;20.20;8.17;;;4.60;99.90;;;;;;5072849;28;20443;-67
2022/11/26 02:14:08;;;;;;;22.53;7.93;;;4.60;99.90;;;;;;5072576;28;20467;-67
2022/11/26 02:16:50;;;;;;;16.53;8.70;;;4.50;99.90;;;;;;5072463;28;20835;-68
2022/11/26 02:19:45;;;;;;;21.50;8.73;;;4.50;99.90;;;;;;5072888;28;20469;-67
2022/11/26 02:22:27;;;;;;;28.77;8.50;;;4.50;99.90;;;;;;5072505;28;20440;-68
2022/11/26 02:25:05;;;;;;;18.23;8.20;;;4.40;99.90;;;;;;5072891;28;20468;-67
2022/11/26 02:28:05;;;;;;;20.33;8.70;;;4.30;99.90;;;;;;5072918;28;20553;-68
2022/11/26 02:30:38;;;;;;;15.63;8.33;;;4.30;99.90;;;;;;5047017;28;20517;-67
2022/11/26 02:33:09;;;;;;;25.97;10.30;;;4.30;99.90;;;;;;5072216;28;20449;-68
2022/11/26 02:35:41;;;;;;;36.43;10.60;;;4.30;99.90;;;;;;5072560;28;20557;-68
2022/11/26 02:38:13;;;;;;;22.60;9.97;;;4.30;99.90;;;;;;5072626;28;20440;-68
2022/11/26 02:40:39;;;;;;;24.53;9.93;;;4.30;99.90;;;;;;5072169;28;20445;-67
2022/11/26 02:43:06;;;;;;;34.23;10.97;;;4.40;99.90;;;;;;5072342;28;20448;-68
2022/11/26 02:45:37;;;;;;;27.87;9.63;;;4.50;99.90;;;;;;5071946;28;20817;-68
2022/11/26 02:48:10;;;;;;;30.73;10.17;;;4.60;99.90;;;;;;5072477;28;20452;-68
2022/11/26 02:50:42;;;;;;;32.77;10.73;;;4.70;99.90;;;;;;5071584;28;20532;-67
2022/11/26 02:53:10;;;;;;;26.90;10.73;;;4.80;99.90;;;;;;5071681;28;20466;-68
2022/11/26 02:55:45;;;;;;;31.00;12.17;;;4.80;99.90;;;;;;5072096;28;20468;-68
2022/11/26 02:58:11;;;;;;;27.50;10.43;;;5.00;99.90;;;;;;5072359;28;20455;-68
2022/11/26 03:00:42;;;;;;;20.20;11.17;;;5.10;99.90;;;;;;5072006;28;20451;-67
2022/11/26 03:03:21;;;;;;;35.47;11.00;;;5.10;99.90;;;;;;5071861;28;20518;-68
2022/11/26 03:05:49;;;;;;;27.33;10.90;;;5.20;99.90;;;;;;5071731;28;20559;-68
2022/11/26 03:08:17;;;;;;;29.70;12.10;;;5.20;99.90;;;;;;5071617;28;20462;-68
2022/11/26 03:10:44;;;;;;;31.53;11.40;;;5.10;99.90;;;;;;5071596;28;21010;-68
2022/11/26 03:13:10;;;;;;;16.80;10.00;;;5.00;99.90;;;;;;5071582;28;20983;-67
2022/11/26 03:15:37;;;;;;;26.87;10.60;;;4.90;99.90;;;;;;5071757;28;20452;-68
2022/11/26 03:18:05;;;;;;;27.10;10.23;;;4.70;99.90;;;;;;5071584;28;20455;-67
2022/11/26 03:20:32;;;;;;;23.93;9.27;;;4.60;99.90;;;;;;5071989;28;20455;-68
2022/11/26 03:22:58;;;;;;;27.10;9.67;;;4.50;99.90;;;;;;5071571;28;20454;-68
2022/11/26 03:25:25;;;;;;;21.53;9.07;;;4.50;99.90;;;;;;5072165;28;20449;-67
2022/11/26 03:27:52;;;;;;;20.10;8.20;;;4.50;99.90;;;;;;5071505;28;20459;-67
2022/11/26 03:30:19;;;;;;;26.40;9.50;;;4.40;99.90;;;;;;5071249;28;20506;-68
2022/11/26 03:32:45;;;;;;;29.13;9.47;;;4.40;99.90;;;;;;5071013;28;20451;-68
2022/11/26 03:35:13;;;;;;;23.60;8.23;;;4.30;99.90;;;;;;5071668;28;20471;-67
2022/11/26 03:37:40;;;;;;;21.47;9.53;;;4.30;99.90;;;;;;5071535;28;20479;-68
2022/11/26 03:40:08;;;;;;;32.73;9.07;;;4.30;99.90;;;;;;5071652;28;20453;-67
2022/11/26 03:42:35;;;;;;;32.93;10.33;;;4.30;99.90;;;;;;5071240;28;20545;-68
2022/11/26 03:45:02;;;;;;;34.47;9.77;;;4.30;99.90;;;;;;5071149;28;21016;-68
2022/11/26 03:47:29;;;;;;;20.37;9.80;;;4.20;99.90;;;;;;5071502;28;20447;-67
2022/11/26 03:49:56;;;;;;;24.10;9.23;;;4.30;99.90;;;;;;5071596;28;20529;-67
2022/11/26 03:52:24;;;;;;;25.50;9.37;;;4.30;99.90;;;;;;5071214;28;20446;-68
2022/11/26 03:54:50;;;;;;;31.13;9.43;;;4.20;99.90;;;;;;5071182;28;20487;-68
2022/11/26 03:57:17;;;;;;;32.43;9.30;;;4.30;99.90;;;;;;5071161;28;20459;-67
2022/11/26 03:59:44;;;;;;;29.07;9.40;;;4.30;99.90;;;;;;5071025;28;20948;-68
2022/11/26 04:02:10;;;;;;;31.17;9.40;;;4.40;99.90;;;;;;5074831;28;20444;-67
2022/11/26 04:04:37;;;;;;;28.57;10.60;;;4.40;99.90;;;;;;5075569;28;20469;-67
2022/11/26 04:07:04;;;;;;;21.57;8.73;;;4.30;99.90;;;;;;5075445;28;20451;-67
2022/11/26 04:09:32;;;;;;;23.33;9.43;;;4.30;99.90;;;;;;5075479;28;20499;-68
2022/11/26 04:11:59;;;;;;;23.33;9.83;;;4.30;99.90;;;;;;5075045;28;20450;-68
2022/11/26 04:14:25;;;;;;;22.23;9.00;;;4.30;99.90;;;;;;5074806;28;21029;-68
2022/11/26 04:16:52;;;;;;;24.57;9.90;;;4.20;99.90;;;;;;5074782;28;20479;-67
2022/11/26 04:19:19;;;;;;;22.77;9.77;;;4.10;99.90;;;;;;5075168;28;20443;-68
2022/11/26 04:21:45;;;;;;;24.00;9.37;;;4.00;99.90;;;;;;5075126;28;20960;-67
2022/11/26 04:24:12;;;;;;;29.33;9.53;;;4.00;99.90;;;;;;5074580;28;20882;-67
2022/11/26 04:26:40;;;;;;;18.07;8.60;;;3.90;99.90;;;;;;5075011;28;20461;-67
2022/11/26 04:29:07;;;;;;;17.80;8.13;;;3.80;99.90;;;;;;5074952;28;20483;-67
2022/11/26 04:31:33;;;;;;;18.40;9.17;;;3.70;99.90;;;;;;5074968;28;20455;-67
2022/11/26 04:34:00;;;;;;;19.40;8.90;;;3.70;99.90;;;;;;5074537;28;20524;-68
2022/11/26 04:36:27;;;;;;;24.23;7.93;;;3.60;99.90;;;;;;5074723;28;20966;-67
2022/11/26 04:38:53;;;;;;;26.70;9.20;;;3.50;99.90;;;;;;5074996;28;20531;-68
2022/11/26 04:41:20;;;;;;;19.40;8.60;;;3.50;99.90;;;;;;5074950;28;20503;-68
2022/11/26 04:43:48;;;;;;;25.30;11.10;;;3.40;99.90;;;;;;5074226;28;20507;-67
2022/11/26 04:46:15;;;;;;;22.63;9.70;;;3.40;99.90;;;;;;5074773;28;20505;-68
2022/11/26 04:48:42;;;;;;;18.10;8.70;;;3.40;99.90;;;;;;5074529;28;20929;-67
2022/11/26 04:51:08;;;;;;;19.60;8.83;;;3.30;99.90;;;;;;5074452;28;20524;-67
2022/11/26 04:53:35;;;;;;;24.33;10.13;;;3.20;99.90;;;;;;5074294;28;20473;-67
2022/11/26 04:56:02;;;;;;;21.77;9.63;;;3.20;99.90;;;;;;5074576;28;20465;-68
2022/11/26 04:58:28;;;;;;;26.40;10.10;;;3.10;99.90;;;;;;5074106;28;20444;-69
2022/11/26 05:00:56;;;;;;;20.30;10.20;;;3.10;99.90;;;;;;5073993;28;20500;-69
2022/11/26 05:03:23;;;;;;;19.53;9.03;;;3.10;99.90;;;;;;5073990;28;20471;-68
2022/11/26 05:05:50;;;;;;;23.93;9.50;;;3.10;99.90;;;;;;5074175;28;20784;-69
2022/11/26 05:08:16;;;;;;;22.13;9.50;;;3.00;99.90;;;;;;5074442;28;20471;-68
2022/11/26 05:10:43;;;;;;;24.90;8.83;;;3.00;99.90;;;;;;5074007;28;20895;-68
2022/11/26 05:13:10;;;;;;;19.77;9.00;;;3.00;99.90;;;;;;5073040;28;20853;-69
2022/11/26 05:15:36;;;;;;;22.37;9.43;;;3.00;99.90;;;;;;5074202;28;20447;-69
2022/11/26 05:18:04;;;;;;;18.00;7.90;;;3.00;99.90;;;;;;5073882;28;20452;-68
2022/11/26 05:20:31;;;;;;;15.63;9.20;;;2.90;99.90;;;;;;5074211;28;20446;-68
2022/11/26 05:22:58;;;;;;;22.00;9.17;;;2.90;99.90;;;;;;5073924;28;20489;-68
2022/11/26 05:25:24;;;;;;;27.27;10.30;;;2.90;99.90;;;;;;5073773;28;20459;-69
2022/11/26 05:27:51;;;;;;;21.20;10.27;;;2.80;99.90;;;;;;5074158;28;20458;-68
2022/11/26 05:30:18;;;;;;;27.17;9.67;;;2.80;99.90;;;;;;5073635;28;21024;-68
2022/11/26 05:32:45;;;;;;;23.53;10.00;;;2.80;99.90;;;;;;5073431;28;20540;-69
2022/11/26 05:35:13;;;;;;;25.13;10.77;;;2.80;99.90;;;;;;5073760;28;20471;-69
2022/11/26 05:37:39;;;;;;;30.77;10.33;;;2.70;99.90;;;;;;5073625;28;20979;-68
2022/11/26 05:40:08;;;;;;;22.90;10.00;;;2.70;99.90;;;;;;5073647;28;20450;-69
2022/11/26 05:42:35;;;;;;;31.10;11.80;;;2.70;99.90;;;;;;5072794;28;20453;-68
2022/11/26 05:45:02;;;;;;;70.90;11.73;;;2.70;99.90;;;;;;5073671;28;20477;-68
2022/11/26 05:47:28;;;;;;;27.43;9.80;;;2.70;99.90;;;;;;5073534;28;20980;-68
2022/11/26 05:49:55;;;;;;;23.73;10.47;;;2.70;99.90;;;;;;5073598;28;20860;-68
2022/11/26 05:52:24;;;;;;;27.30;11.30;;;2.70;99.90;;;;;;5072958;28;20458;-68
2022/11/26 05:54:51;;;;;;;65.97;11.50;;;2.60;99.90;;;;;;5073024;28;20485;-68
2022/11/26 05:57:18;;;;;;;60.20;12.40;;;2.60;99.90;;;;;;5072891;28;20493;-68
2022/11/26 05:59:46;;;;;;;82.43;11.37;;;2.50;99.90;;;;;;5073112;28;20937;-68
2022/11/26 06:02:13;;;;;;;51.27;11.00;;;2.50;99.90;;;;;;5073017;28;20510;-68
2022/11/26 06:04:40;;;;;;;111.90;12.60;;;2.50;99.90;;;;;;5073059;28;20466;-68
2022/11/26 06:07:06;;;;;;;189.47;13.67;;;2.50;99.90;;;;;;5073625;28;20449;-68
2022/11/26 06:09:35;;;;;;;137.70;12.97;;;2.50;99.90;;;;;;5072974;28;21010;-68
2022/11/26 06:12:02;;;;;;;179.37;12.37;;;2.50;99.90;;;;;;5071201;28;20446;-68
2022/11/26 06:14:28;;;;;;;195.33;12.43;;;2.50;99.90;;;;;;5068723;28;20530;-68
2022/11/26 06:16:55;;;;;;;243.00;13.77;;;2.50;99.90;;;;;;5071538;28;20458;-68
2022/11/26 06:19:22;;;;;;;157.87;11.43;;;2.40;99.90;;;;;;5072733;28;20452;-68
2022/11/26 06:21:48;;;;;;;221.13;12.23;;;2.40;99.90;;;;;;5072543;28;20953;-69
2022/11/26 06:24:15;;;;;;;229.93;13.40;;;2.40;99.90;;;;;;5071219;28;20984;-67
2022/11/26 06:26:43;;;;;;;138.77;10.37;;;2.30;99.90;;;;;;5072801;28;21290;-68
2022/11/26 06:29:10;;;;;;;215.03;13.67;;;2.30;99.90;;;;;;5072864;28;20456;-68
2022/11/26 06:31:36;;;;;;;155.90;10.47;;;2.20;99.90;;;;;;5072334;28;20546;-68
2022/11/26 06:34:03;;;;;;;173.20;11.13;;;2.10;99.90;;;;;;5070563;28;20488;-68
2022/11/26 06:36:30;;;;;;;174.60;10.47;;;2.10;99.90;;;;;;5063101;28;20507;-68
2022/11/26 06:38:56;;;;;;;138.87;11.63;;;2.00;99.90;;;;;;5070545;28;20448;-67
2022/11/26 06:41:23;;;;;;;179.23;10.20;;;2.00;99.90;;;;;;5071171;28;20451;-68
2022/11/26 06:43:51;;;;;;;87.23;8.60;;;2.00;99.90;;;;;;5072096;28;20476;-68
2022/11/26 06:46:18;;;;;;;147.50;10.63;;;1.90;99.90;;;;;;5072326;28;20445;-68
2022/11/26 06:48:44;;;;;;;87.77;7.70;;;1.90;99.90;;;;;;5071689;28;20883;-69
2022/11/26 06:51:13;;;;;;;101.47;8.90;;;1.90;99.90;;;;;;5072109;28;20494;-68
2022/11/26 06:53:40;;;;;;;88.63;8.80;;;1.80;99.90;;;;;;5071915;28;20471;-68
2022/11/26 06:56:11;;;;;;;97.13;8.50;;;1.80;99.90;;;;;;5051722;28;20465;-68
2022/11/26 06:58:38;;;;;;;53.70;7.20;;;1.70;99.90;;;;;;5052346;28;20449;-69
2022/11/26 07:01:09;;;;;;;80.70;7.73;;;1.70;99.90;;;;;;5063235;28;20449;-70
2022/11/26 07:03:36;;;;;;;92.37;7.77;;;1.80;99.90;;;;;;5071706;28;20472;-68
2022/11/26 07:06:03;;;;;;;58.63;7.90;;;1.70;99.90;;;;;;5071500;28;20495;-69
2022/11/26 07:08:30;;;;;;;52.23;7.23;;;1.70;99.90;;;;;;5071700;28;20454;-69
2022/11/26 07:11:00;;;;;;;52.07;8.30;;;1.60;99.90;;;;;;5071693;28;20491;-69
2022/11/26 07:13:27;;;;;;;198.63;12.30;;;1.50;99.90;;;;;;5071620;28;20478;-69
2022/11/26 07:15:54;;;;;;;108.73;11.00;;;1.50;99.90;;;;;;5071621;28;20868;-69
2022/11/26 07:18:22;;;;;;;138.20;9.63;;;1.50;99.90;;;;;;5071370;28;20956;-68
2022/11/26 07:20:48;;;;;;;100.97;9.00;;;1.50;99.90;;;;;;5071523;28;20448;-69
2022/11/26 07:23:15;;;;;;;114.07;9.17;;;1.60;99.90;;;;;;5071169;28;20454;-68
2022/11/26 07:25:41;;;;;;;118.77;10.40;;;1.70;99.90;;;;;;5071866;28;20459;-69
2022/11/26 07:28:08;;;;;;;93.30;9.90;;;1.70;99.90;;;;;;5071861;28;20452;-68
2022/11/26 07:30:35;;;;;;;91.43;9.00;;;1.70;99.90;;;;;;5071580;28;20525;-68
2022/11/26 07:33:01;;;;;;;86.87;10.40;;;1.70;99.90;;;;;;5071164;28;20452;-68
2022/11/26 07:35:31;;;;;;;103.77;10.20;;;1.70;99.90;;;;;;5070886;28;20452;-68
2022/11/26 07:37:58;;;;;;;75.13;9.80;;;1.70;99.90;;;;;;5071666;28;20479;-68
2022/11/26 07:40:25;;;;;;;122.23;9.67;;;1.70;99.90;;;;;;5071283;28;20448;-68
2022/11/26 07:42:51;;;;;;;88.57;10.00;;;1.70;99.90;;;;;;5071055;28;20443;-68
2022/11/26 07:45:18;;;;;;;125.63;10.90;;;1.80;99.90;;;;;;5071355;28;20970;-68
2022/11/26 07:47:45;;;;;;;78.00;9.43;;;1.80;99.90;;;;;;5071103;28;20451;-68
2022/11/26 07:50:11;;;;;;;91.33;9.93;;;1.90;99.90;;;;;;5071612;28;20484;-68
2022/11/26 07:52:39;;;;;;;122.50;9.40;;;1.90;99.90;;;;;;5071149;28;20444;-68
2022/11/26 07:55:07;;;;;;;85.17;9.20;;;1.90;99.90;;;;;;5071130;28;20480;-68
2022/11/26 07:57:34;;;;;;;74.27;10.27;;;1.80;99.90;;;;;;5070938;28;20445;-68
2022/11/26 08:00:01;;;;;;;91.13;10.70;;;1.90;99.90;;;;;;5071084;28;20454;-68
2022/11/26 08:02:28;;;;;;;99.13;10.73;;;1.90;99.90;;;;;;5070617;28;20448;-68
2022/11/26 08:04:54;;;;;;;60.90;10.20;;;1.90;99.90;;;;;;5071108;28;20469;-68
2022/11/26 08:07:21;;;;;;;45.87;9.00;;;1.90;99.90;;;;;;5071320;28;20450;-68
2022/11/26 08:09:49;;;;;;;48.97;9.07;;;2.00;99.90;;;;;;5071239;28;20513;-68
2022/11/26 08:12:16;;;;;;;66.87;10.37;;;2.10;99.90;;;;;;5070535;28;20946;-68
2022/11/26 08:14:42;;;;;;;67.00;9.57;;;2.10;99.90;;;;;;5071042;28;20541;-68
2022/11/26 08:17:09;;;;;;;70.67;9.80;;;2.10;99.90;;;;;;5070301;28;20457;-68
2022/11/26 08:19:35;;;;;;;62.37;9.67;;;2.20;99.90;;;;;;5071486;28;20444;-68
2022/11/26 08:22:02;;;;;;;52.90;9.13;;;2.20;99.90;;;;;;5070718;28;20494;-68
2022/11/26 08:24:30;;;;;;;67.93;9.00;;;2.30;99.90;;;;;;5062680;28;20529;-68
2022/11/26 08:26:58;;;;;;;45.27;9.20;;;2.30;99.90;;;;;;5071235;28;20540;-68
2022/11/26 08:29:25;;;;;;;27.23;8.33;;;2.30;99.90;;;;;;5070931;28;20452;-68
2022/11/26 08:31:52;;;;;;;42.60;8.43;;;2.40;99.90;;;;;;5070914;28;20481;-68
2022/11/26 08:34:19;;;;;;;52.90;9.33;;;2.40;99.90;;;;;;5070572;28;20504;-68
2022/11/26 08:36:46;;;;;;;32.23;10.03;;;2.40;99.90;;;;;;5070570;28;20472;-68
2022/11/26 08:39:13;;;;;;;55.07;8.90;;;2.50;99.90;;;;;;5070990;28;20450;-68
2022/11/26 08:41:40;;;;;;;26.80;8.30;;;2.50;99.90;;;;;;5070570;28;20456;-67
2022/11/26 08:44:08;;;;;;;33.20;8.07;;;2.60;99.90;;;;;;5070339;28;20521;-67
2022/11/26 08:46:36;;;;;;;24.13;8.23;;;2.70;99.90;;;;;;5070997;28;20446;-68
2022/11/26 08:49:02;;;;;;;23.57;8.53;;;2.70;99.90;;;;;;5073811;28;20455;-67
2022/11/26 08:51:29;;;;;;;20.13;7.53;;;2.80;99.90;;;;;;5074460;28;20487;-68
2022/11/26 08:53:56;;;;;;;21.77;7.70;;;2.80;99.90;;;;;;5074283;28;20870;-67
2022/11/26 08:56:23;;;;;;;22.23;8.50;;;2.90;99.90;;;;;;5072774;28;20811;-68
2022/11/26 08:58:50;;;;;;;14.80;8.07;;;2.90;99.90;;;;;;5073011;28;20468;-66
2022/11/26 09:01:20;;;;;;;34.03;9.00;;;3.00;99.90;;;;;;5072981;28;20440;-67
2022/11/26 09:03:48;;;;;;;97.40;12.37;;;2.90;99.90;;;;;;5072928;28;20887;-66
2022/11/26 09:06:15;;;;;;;17.43;9.17;;;2.90;99.90;;;;;;5066606;28;20472;-66
2022/11/26 09:09:11;;;;;;;149.30;15.40;;;2.90;99.90;;;;;;5073118;28;20519;-66
2022/11/26 09:11:32;;;;;;;302.97;23.77;;;2.90;99.90;;;;;;5073486;28;20489;-66
2022/11/26 09:13:59;;;;;;;487.73;24.20;;;2.90;99.90;;;;;;5072437;28;20471;-66
2022/11/26 09:16:27;;;;;;;328.73;19.57;;;2.90;99.90;;;;;;5073138;28;20496;-67
2022/11/26 09:18:54;;;;;;;358.10;21.30;;;2.80;99.90;;;;;;5073328;28;20453;-66
2022/11/26 09:21:23;;;;;;;313.73;18.57;;;2.80;99.90;;;;;;5073014;28;20445;-66
2022/11/26 09:23:49;;;;;;;211.83;17.63;;;2.80;99.90;;;;;;5070736;28;20473;-67
2022/11/26 09:26:19;;;;;;;123.97;15.33;;;2.90;99.90;;;;;;5072474;28;20445;-66
2022/11/26 09:28:46;;;;;;;236.13;20.43;;;2.90;99.90;;;;;;5073640;28;20459;-67
2022/11/26 09:31:13;;;;;;;383.07;20.20;;;3.00;99.90;;;;;;5072997;28;20488;-67
2022/11/26 09:33:42;;;;;;;309.00;18.40;;;3.10;99.90;;;;;;5072954;28;20476;-67
2022/11/26 09:36:10;;;;;;;196.77;16.03;;;3.10;99.90;;;;;;5072461;28;20448;-67
2022/11/26 09:38:38;;;;;;;164.30;13.50;;;3.10;99.90;;;;;;5072802;28;20455;-67
2022/11/26 09:41:13;;;;;;;285.23;19.00;;;3.20;99.90;;;;;;5073390;28;20447;-66
2022/11/26 09:43:55;;;;;;;238.57;15.50;;;3.20;99.90;;;;;;5072976;28;20475;-67
2022/11/26 09:46:28;;;;;;;291.03;17.33;;;3.20;99.90;;;;;;5067216;28;20977;-67
2022/11/26 09:48:59;;;;;;;213.87;14.77;;;3.20;99.90;;;;;;5071810;28;20985;-67
2022/11/26 09:51:27;;;;;;;152.40;14.27;;;3.10;99.90;;;;;;5072228;28;20482;-68
2022/11/26 09:53:55;;;;;;;166.40;14.00;;;3.20;99.90;;;;;;5071480;28;20475;-67
2022/11/26 09:56:25;;;;;;;274.57;16.40;;;3.10;99.90;;;;;;5070819;28;20453;-67
2022/11/26 09:58:56;;;;;;;185.70;15.60;;;3.10;99.90;;;;;;5071449;28;20553;-67
2022/11/26 10:01:24;;;;;;;161.77;14.90;;;3.00;99.90;;;;;;5069815;28;21166;-67
2022/11/26 10:03:51;;;;;;;46.90;11.47;;;3.00;99.90;;;;;;5070488;28;20469;-67
2022/11/26 10:06:30;;;;;;;98.70;12.37;;;3.20;99.90;;;;;;5072031;28;20477;-67
2022/11/26 10:09:27;;;;;;;32.67;10.63;;;3.50;99.90;;;;;;5072267;28;20452;-68
2022/11/26 10:12:02;;;;;;;25.50;10.67;;;3.70;99.90;;;;;;5072211;28;20482;-67
2022/11/26 10:14:48;;;;;;;25.93;10.17;;;4.00;99.90;;;;;;5072228;28;21029;-67
2022/11/26 10:17:34;;;;;;;55.53;10.00;;;4.30;99.90;;;;;;5071379;28;20447;-68
2022/11/26 10:20:42;;;;;;;25.53;9.97;;;4.60;99.90;;;;;;5071100;28;20451;-68
2022/11/26 10:23:18;;;;;;;42.30;9.60;;;4.80;99.90;;;;;;5064558;28;20858;-67
2022/11/26 10:25:49;;;;;;;47.60;9.27;;;4.90;99.90;;;;;;5072103;28;20456;-67
2022/11/26 10:28:20;;;;;;;49.47;9.67;;;4.70;99.90;;;;;;5071908;28;21032;-67
2022/11/26 10:30:55;;;;;;;56.80;9.60;;;4.50;99.90;;;;;;5071884;28;20512;-67
2022/11/26 10:33:22;;;;;;;51.43;9.83;;;4.40;99.90;;;;;;5071113;28;20560;-66
2022/11/26 10:35:49;;;;;;;36.50;10.30;;;4.30;99.90;;;;;;5071092;28;20455;-67
2022/11/26 10:38:17;;;;;;;79.53;12.20;;;4.50;99.90;;;;;;5070901;28;20516;-67
2022/11/26 10:40:44;;;;;;;99.70;12.47;;;4.60;99.90;;;;;;5070778;28;20451;-67
2022/11/26 10:43:19;;;;;;;43.20;9.67;;;4.60;99.90;;;;;;5071136;28;20499;-68
2022/11/26 10:45:47;;;;;;;171.23;13.77;;;4.50;99.90;;;;;;5071706;28;20451;-67
2022/11/26 10:48:25;;;;;;;137.13;12.63;;;4.30;99.90;;;;;;5069553;28;20454;-68
2022/11/26 10:51:01;;;;;;;36.30;8.97;;;4.20;99.90;;;;;;5065276;28;20482;-67
2022/11/26 10:53:31;;;;;;;116.77;12.17;;;4.10;99.90;;;;;;5069215;28;20545;-68
2022/11/26 10:56:00;;;;;;;109.37;11.40;;;4.00;99.90;;;;;;5070626;28;20462;-67
2022/11/26 10:58:29;;;;;;;90.00;13.67;;;4.00;99.90;;;;;;5062983;28;20822;-68
2022/11/26 11:01:01;;;;;;;177.30;13.23;;;3.90;99.90;;;;;;5070392;28;20497;-69
2022/11/26 11:03:31;;;;;;;72.27;11.17;;;3.80;99.90;;;;;;5069308;28;20467;-67
2022/11/26 11:06:21;;;;;;;178.40;14.63;;;3.90;99.90;;;;;;5071408;28;20454;-67
2022/11/26 11:08:51;;;;;;;101.20;13.00;;;3.90;99.90;;;;;;5071548;28;20454;-67
2022/11/26 11:11:19;;;;;;;118.20;12.73;;;4.10;99.90;;;;;;5070005;28;20482;-67
2022/11/26 11:13:47;;;;;;;144.60;14.60;;;4.20;99.90;;;;;;5070454;28;20498;-67
2022/11/26 11:16:15;;;;;;;74.10;11.87;;;4.30;99.90;;;;;;5070135;28;20455;-67
2022/11/26 11:18:49;;;;;;;63.03;11.90;;;4.40;99.90;;;;;;5070197;28;20480;-67
2022/11/26 11:21:18;;;;;;;42.47;11.00;;;4.60;99.90;;;;;;5071349;28;20806;-67
2022/11/26 11:23:45;;;;;;;39.77;11.30;;;4.60;99.90;;;;;;5070132;28;20488;-67
2022/11/26 11:26:19;;;;;;;184.30;15.93;;;4.70;99.90;;;;;;5070401;28;20449;-67
2022/11/26 11:28:49;;;;;;;154.77;13.83;;;4.60;99.90;;;;;;5063765;28;20448;-67
2022/11/26 11:31:19;;;;;;;41.23;10.37;;;4.40;99.90;;;;;;5070148;28;20482;-67
2022/11/26 11:33:46;;;;;;;133.93;16.63;;;4.20;99.90;;;;;;5070667;28;20509;-67
2022/11/26 11:36:27;;;;;;;164.57;16.23;;;4.20;99.90;;;;;;5070458;28;20458;-67
2022/11/26 11:38:56;;;;;;;97.70;14.23;;;4.10;99.90;;;;;;5070494;28;20474;-67
2022/11/26 11:41:32;;;;;;;148.70;16.00;;;4.10;99.90;;;;;;5070796;28;20442;-68
2022/11/26 11:44:03;;;;;;;57.63;13.77;;;4.20;99.90;;;;;;5068858;28;20521;-67
2022/11/26 11:47:08;;;;;;;306.60;19.90;;;4.20;99.90;;;;;;5066374;28;20567;-67
2022/11/26 11:50:07;;;;;;;142.33;18.13;;;4.30;99.90;;;;;;5068915;28;20818;-67
2022/11/26 11:52:41;;;;;;;446.73;28.30;;;4.40;99.90;;;;;;5069867;28;20482;-68
2022/11/26 11:55:20;;;;;;;123.93;19.23;;;4.40;99.90;;;;;;5070496;28;20477;-67
2022/11/26 11:58:10;;;;;;;437.47;24.83;;;4.40;99.90;;;;;;5070646;28;20853;-68
2022/11/26 12:00:43;;;;;;;389.70;25.67;;;4.40;99.90;;;;;;5069438;28;20872;-68
2022/11/26 12:03:39;;;;;;;248.13;21.23;;;4.40;99.90;;;;;;5067375;28;20447;-67
2022/11/26 12:06:17;;;;;;;237.40;19.30;;;4.40;99.90;;;;;;5065472;28;20460;-68
2022/11/26 12:08:56;;;;;;;96.30;17.30;;;4.50;99.90;;;;;;5070518;28;20515;-67
2022/11/26 12:11:34;;;;;;;340.83;23.13;;;4.50;99.90;;;;;;5069233;28;20987;-68
2022/11/26 12:14:07;;;;;;;245.67;18.00;;;4.50;99.90;;;;;;5070449;28;20474;-68
2022/11/26 12:16:40;;;;;;;193.57;23.13;;;4.50;99.90;;;;;;5069022;28;20453;-67
2022/11/26 12:19:16;;;;;;;124.07;20.10;;;4.40;99.90;;;;;;5070625;28;20487;-68
2022/11/26 12:21:48;;;;;;;157.60;19.93;;;4.50;99.90;;;;;;5062891;28;20451;-68
2022/11/26 12:24:25;;;;;;;139.53;19.53;;;4.50;99.90;;;;;;5073993;28;20471;-68
2022/11/26 12:26:56;;;;;;;198.00;20.30;;;4.60;99.90;;;;;;5074266;28;20458;-67
2022/11/26 12:29:33;;;;;;;151.77;21.17;;;4.80;99.90;;;;;;5075199;28;20456;-68
2022/11/26 12:32:06;;;;;;;107.93;17.00;;;4.80;99.90;;;;;;5073931;28;20530;-68
2022/11/26 12:34:37;;;;;;;64.70;16.47;;;4.80;99.90;;;;;;5065280;28;20474;-68
2022/11/26 12:37:11;;;;;;;70.70;15.83;;;4.80;99.90;;;;;;5073216;28;20467;-68
2022/11/26 12:39:44;;;;;;;109.20;17.83;;;4.90;99.90;;;;;;5074078;28;20450;-68
2022/11/26 12:42:19;;;;;;;111.93;21.10;;;4.90;99.90;;;;;;5072987;28;20866;-68
2022/11/26 12:44:50;;;;;;;95.97;22.50;;;4.90;99.90;;;;;;5071517;28;20678;-68
2022/11/26 12:47:23;;;;;;;95.33;22.70;;;4.90;99.90;;;;;;5072906;28;20444;-68
2022/11/26 12:50:02;;;;;;;187.63;25.13;;;4.90;99.90;;;;;;5067189;28;20449;-68
2022/11/26 12:52:34;;;;;;;294.87;78.53;;;4.90;99.90;;;;;;5073593;28;20489;-68